Hovedside
METAR-TAF:

METAR-TAF

Lufthavner :

Tiree, Skottland

breddegrad: 56-30N, lengdegrad: 006-53W, høyde over havet: 12 m

Gjeldene værobservasjon

Denne rapporten ble laget for 4 timer og 8 minutter siden, klokken 10:50 UTC
Vind 9 kt fra Vest-nordvest
Temperatur 14°C
Luftfuktighet 94%
Trykk 1014 hPa
Sikt: 5000 m
Brutte skyer i en høyde av 300 ft
lett duskregn,

METAR: EGPU 181050Z 30009KT 5000 -DZ BKN003 14/13 Q1014

Tid: 15:58 (14:58 UTC)

Varsel

Denne rapporten ble laget for 53 minutter siden, klokken 14:05 UTC
Varsel gyldig fra 18. klokken 15 UTC til 18. klokken 18 UTC
Vind 9 kt fra Nord-nordvest
Sikt 10 km eller mer
Få skyer i en høyde av 2500 ft

TAF: EGPU 181405Z 1815/1818 33009KT 9999 FEW025

Værobservasjoner og værvarsel for over 4000 flyplasser (METAR- og TAF-rapporter).

Tilgjengelige stasjoner er representert av de røde og gule prikkene på kartet.

Hold musepekeren over prikken for å se navnet på stasjonen.

Klikk så for å se værobservasjoner og -varsler.

For å forandre kartet kan du klikke på den grønne knappen med svart kryss for å zoome inn, på den grønne knappen med strek for å zoome ut, eller på de grønne pilene for å se tilstøtende kart.


METAR-TAF: